GMFODTTA

Guest
Details From GMFO - Angads
To DTTA - Carthage
Flight Number -
Tags Generated
Created
Modified
Stats Distance 605 nm / 1,120 km
Max Altitude 0 ft / 0 m
Waypoints 3
Social Downloads 1
Likes 0
Share VATSIM

Download

Looking for another format? Having issues loading an existing format? Contact us
Advertisement - Login to hide

Notes

Generated

Route

GMFO TUC27 DTTA

ID Type Via Altitude Latitude Longitude Leg Dist Tot Dist Heading (true) Name
O GMFO APT - 0 ft / 0 m 34.77993˚ -1.93784˚ - 0 nm - -
TUC27 FIX - 0 ft / 0 m 36.85128˚ 9.96019˚ 592 nm 592 nm 74° / 81° -
O DTTA APT - 0 ft / 0 m 36.85426˚ 10.21769˚ 12 nm 604 nm 89° / 89° -

Altitude Profile

Advertisement - Login to hide

Weather


0- 5 10 15 20 25 30 35+ Temperature / ° C

Clouds and Precipitation
Forecast for 2018-05-20 18:00 UTC. Updated 6 hours ago

Ground ~20,000 ft ~40,000 ft Winds

GMFO

Details ICAO GMFO (OUD)
Name ANGADS
Region Morocco
Timezone Africa/Casablanca (UTC+0.0)
Stats Elevation 1,535 ft / 468 m (AMSL)
Location 34.787149° -1.923985°
Runways 1
Magnetic Variation 0.145° W

METAR

GMFO 202300Z 31003KT 260V350 9999 FEW020 12/11 Q1014 NOSIG

Decode

TAF

TAF GMFO 201700Z 2018/2124 33012KT 9999 SCT026 TEMPO 2101/2105 20006KT 8000 BECMG 2114/2118 36016KT 9999 -TS BKN026 FEW033CB

Decode

Departure Runways

ID Width Length Bearing (true) Bearing (mag) Surface Threshold Offset Overrun Length
06 148 ft / 45 m 9,835 ft / 2,998 m 57.61° 57.76° Asphalt 0 ft / 0 m 0 ft / 0 m
24 148 ft / 45 m 9,835 ft / 2,998 m 237.62° 237.77° Asphalt 0 ft / 0 m 200 ft / 61 m

DTTA

Details ICAO DTTA (TUN)
Name CARTHAGE
Region Tunisia
Timezone Africa/Tunis (UTC+1.0)
Stats Elevation 22 ft / 7 m (AMSL)
Location 36.851267° 10.230027°
Runways 2
Magnetic Variation 2.445° E

METAR

DTTA 202300Z 36004KT 9999 FEW026 18/16 Q1012 NOSIG

Decode

TAF

TAF DTTA 201700Z 2018/2118 01008KT 9999 FEW033

Decode

Destination Runways

ID Width Length Bearing (true) Bearing (mag) Surface Threshold Offset Overrun Length
01 148 ft / 45 m 10,502 ft / 3,201 m 12.29° 9.85° Asphalt 0 ft / 0 m 197 ft / 60 m
11 148 ft / 45 m 9,345 ft / 2,848 m 112.55° 110.11° Asphalt 0 ft / 0 m 643 ft / 196 m
19 148 ft / 45 m 10,502 ft / 3,201 m 192.29° 189.85° Asphalt 0 ft / 0 m 197 ft / 60 m
29 148 ft / 45 m 9,345 ft / 2,848 m 292.57° 290.13° Asphalt 657 ft / 200 m 197 ft / 60 m

Approach Navaids

Runway Type Ident Frequency Range Bearing (true) Bearing (mag) Slope Elevation
01 Glidescope TBL 111.10 MHz 10 nm / 19 km 10.00° 7.56° 3.00° 22 ft / 7 m (AMSL)
01 DME TBL 111.10 MHz 18 nm / 33 km - - - 22 ft / 7 m (AMSL)
19 Localiser TSI 110.30 MHz 18 nm / 33 km 192.29° 189.84° - 13 ft / 4 m (AMSL)
19 Glidescope TSI 110.30 MHz 10 nm / 19 km 192.29° 189.84° 3.00° 22 ft / 7 m (AMSL)
29 Localiser TKE 108.50 MHz 18 nm / 33 km 292.54° 290.10° - 22 ft / 7 m (AMSL)
29 Glidescope TKE 108.50 MHz 10 nm / 19 km 292.56° 290.11° 3.00° 22 ft / 7 m (AMSL)
29 DME TKE 108.50 MHz 18 nm / 33 km - - - 22 ft / 7 m (AMSL)